TAF and METAR

METAR for Iwo Jima Air Base

RJAW 192000Z 12008KT 9999 SCT010 26/24 Q1015 RMK 3CU010 A2999
Report created 19. okt 22:00
wind 8 knots from ESE (120°) visibility > 10km scattered clouds (~50% cover) at 1000 feet Temperature 26° with dewpoint at 24° (Humidity 88.78%) Pressure 1015 hPa
No TAF available for Iwo Jima Air Base